Time;durP1;ratioP1;P1;durP2;ratioP2;P2;SDS_P1;SDS_P2;PMS_P1;PMS_P2;Temp;Humidity;BMP_temperature;BMP_pressure;BME280_temperature;BME280_humidity;BME280_pressure;Samples;Min_cycle;Max_cycle;Signal;HPM_P1;HPM_P2
2022/09/21 00:01:42;;;;;;;3.80;3.10;;;;;;;;;;4955763;28;20248;-73
2022/09/21 00:04:07;;;;;;;7.90;3.17;;;;;;;;;;4954058;28;20247;-73
2022/09/21 00:06:33;;;;;;;4.33;3.00;;;;;;;;;;4952257;28;20197;-73
2022/09/21 00:08:58;;;;;;;4.63;2.60;;;;;;;;;;4953306;28;20607;-73
2022/09/21 00:11:26;;;;;;;5.17;2.80;;;;;;;;;;4959578;28;20185;-73
2022/09/21 00:13:53;;;;;;;6.57;3.37;;;;;;;;;;4961056;28;20549;-73
2022/09/21 00:16:19;;;;;;;6.50;3.30;;;;;;;;;;4962082;28;20184;-73
2022/09/21 00:18:44;;;;;;;8.87;3.67;;;;;;;;;;4952569;28;20235;-73
2022/09/21 00:21:11;;;;;;;5.30;3.20;;;;;;;;;;4943709;28;20185;-73
2022/09/21 00:23:36;;;;;;;4.00;2.90;;;;;;;;;;4962320;28;20256;-73
2022/09/21 00:26:06;;;;;;;4.57;3.40;;;;;;;;;;4953250;28;20217;-73
2022/09/21 00:28:31;;;;;;;9.50;3.50;;;;;;;;;;4950175;28;20205;-75
2022/09/21 00:31:00;;;;;;;5.37;3.47;;;;;;;;;;4957345;28;20602;-75
2022/09/21 00:33:25;;;;;;;8.83;4.27;;;;;;;;;;4963018;28;20593;-72
2022/09/21 00:35:50;;;;;;;4.33;2.90;;;;;;;;;;4952936;28;20208;-72
2022/09/21 00:38:15;;;;;;;5.03;3.60;;;;;;;;;;4960944;28;20204;-72
2022/09/21 00:40:41;;;;;;;4.63;3.13;;;;;;;;;;4964851;28;20184;-76
2022/09/21 00:43:14;;;;;;;7.83;3.33;;;;;;;;;;4957822;28;20216;-72
2022/09/21 00:45:39;;;;;;;6.57;2.87;;;;;;;;;;4951930;28;20723;-75
2022/09/21 00:48:04;;;;;;;4.77;4.03;;;;;;;;;;4952399;28;20280;-72
2022/09/21 00:50:30;;;;;;;6.53;3.97;;;;;;;;;;4953538;28;20173;-72
2022/09/21 00:52:56;;;;;;;6.53;4.07;;;;;;;;;;4962586;28;20184;-74
2022/09/21 00:55:24;;;;;;;4.47;3.20;;;;;;;;;;4959528;28;20232;-75
2022/09/21 00:57:53;;;;;;;7.07;3.43;;;;;;;;;;4953292;28;20646;-72
2022/09/21 01:00:18;;;;;;;5.37;3.50;;;;;;;;;;4938476;28;20671;-74
2022/09/21 01:02:44;;;;;;;6.63;4.10;;;;;;;;;;4952366;28;20250;-74
2022/09/21 01:05:10;;;;;;;7.87;4.33;;;;;;;;;;4952142;28;20611;-73
2022/09/21 01:07:36;;;;;;;5.70;3.57;;;;;;;;;;4952267;28;20267;-75
2022/09/21 01:10:08;;;;;;;5.03;4.20;;;;;;;;;;4951069;28;20235;-75
2022/09/21 01:12:52;;;;;;;6.67;3.97;;;;;;;;;;4950148;28;20185;-73
2022/09/21 01:15:30;;;;;;;5.17;3.30;;;;;;;;;;4959816;28;20314;-76
2022/09/21 01:18:11;;;;;;;7.93;3.93;;;;;;;;;;4952034;28;20740;-72
2022/09/21 01:20:55;;;;;;;4.90;3.67;;;;;;;;;;4955672;28;20177;-73
2022/09/21 01:23:20;;;;;;;5.77;3.77;;;;;;;;;;4952085;28;20288;-75
2022/09/21 01:26:11;;;;;;;4.90;3.30;;;;;;;;;;4951410;28;20722;-72
2022/09/21 01:28:40;;;;;;;7.03;2.93;;;;;;;;;;4943170;28;20209;-75
2022/09/21 01:31:09;;;;;;;4.93;3.43;;;;;;;;;;4952932;28;20272;-75
2022/09/21 01:33:38;;;;;;;5.13;3.30;;;;;;;;;;4968848;28;20267;-74
2022/09/21 01:36:07;;;;;;;3.80;3.00;;;;;;;;;;4952514;28;20643;-74
2022/09/21 01:38:39;;;;;;;7.70;3.97;;;;;;;;;;4936037;28;20214;-74
2022/09/21 01:41:05;;;;;;;5.27;3.73;;;;;;;;;;4949380;28;20195;-75
2022/09/21 01:43:33;;;;;;;5.33;3.80;;;;;;;;;;4950569;28;20264;-74
2022/09/21 01:46:00;;;;;;;5.60;3.67;;;;;;;;;;4954538;28;20209;-74
2022/09/21 01:48:29;;;;;;;7.30;3.50;;;;;;;;;;4954057;28;20308;-74
2022/09/21 01:50:55;;;;;;;5.53;3.23;;;;;;;;;;4952602;28;20220;-74
2022/09/21 01:53:32;;;;;;;4.87;3.40;;;;;;;;;;4955654;28;20197;-74
2022/09/21 01:55:59;;;;;;;6.23;3.63;;;;;;;;;;4950952;28;20265;-74
2022/09/21 01:58:54;;;;;;;6.17;3.33;;;;;;;;;;4960115;28;20212;-74
2022/09/21 02:01:22;;;;;;;6.03;3.40;;;;;;;;;;4950201;28;20197;-74
2022/09/21 02:03:52;;;;;;;6.30;3.90;;;;;;;;;;4951396;28;20252;-74
2022/09/21 02:06:17;;;;;;;8.10;4.03;;;;;;;;;;4951418;28;20747;-75
2022/09/21 02:08:43;;;;;;;5.00;3.57;;;;;;;;;;4951816;28;20283;-74
2022/09/21 02:11:09;;;;;;;5.90;3.37;;;;;;;;;;4957937;28;20192;-72
2022/09/21 02:13:36;;;;;;;5.70;3.80;;;;;;;;;;4952728;28;20189;-72
2022/09/21 02:16:01;;;;;;;4.50;3.37;;;;;;;;;;4952729;28;20264;-75
2022/09/21 02:18:42;;;;;;;4.37;3.27;;;;;;;;;;4951778;28;20307;-75
2022/09/21 02:21:12;;;;;;;6.57;4.37;;;;;;;;;;4956383;28;20264;-74
2022/09/21 02:23:37;;;;;;;5.80;3.87;;;;;;;;;;4967386;28;20219;-74
2022/09/21 02:26:05;;;;;;;4.30;3.33;;;;;;;;;;4950754;28;20233;-73
2022/09/21 02:28:50;;;;;;;3.43;2.97;;;;;;;;;;4950722;28;20629;-72
2022/09/21 02:31:24;;;;;;;5.50;3.57;;;;;;;;;;4947282;28;20240;-74
2022/09/21 02:33:56;;;;;;;4.63;3.70;;;;;;;;;;4956496;28;20176;-74
2022/09/21 02:36:35;;;;;;;4.43;3.40;;;;;;;;;;4951438;28;20216;-75
2022/09/21 02:39:09;;;;;;;6.03;3.47;;;;;;;;;;4950180;28;20247;-72
2022/09/21 02:41:44;;;;;;;4.53;3.17;;;;;;;;;;4953662;28;20226;-75
2022/09/21 02:44:15;;;;;;;7.93;3.30;;;;;;;;;;4953101;28;20200;-73
2022/09/21 02:46:44;;;;;;;6.37;3.60;;;;;;;;;;4952834;28;20212;-73
2022/09/21 02:49:12;;;;;;;7.70;3.50;;;;;;;;;;4949173;28;20199;-73
2022/09/21 02:51:41;;;;;;;4.90;3.00;;;;;;;;;;4952674;28;20272;-74
2022/09/21 02:54:07;;;;;;;4.90;3.13;;;;;;;;;;4950152;28;20188;-74
2022/09/21 02:56:32;;;;;;;4.53;3.30;;;;;;;;;;4960537;28;20185;-74
2022/09/21 02:59:00;;;;;;;4.00;2.83;;;;;;;;;;4968032;28;20204;-74
2022/09/21 03:01:25;;;;;;;4.83;3.47;;;;;;;;;;4971671;28;20189;-74
2022/09/21 03:03:51;;;;;;;5.93;3.57;;;;;;;;;;4957180;28;20181;-74
2022/09/21 03:06:16;;;;;;;7.40;3.50;;;;;;;;;;4958334;28;20825;-74
2022/09/21 03:08:42;;;;;;;6.57;3.87;;;;;;;;;;4966693;28;20204;-74
2022/09/21 03:11:09;;;;;;;7.47;3.57;;;;;;;;;;4959486;28;20189;-73
2022/09/21 03:13:35;;;;;;;9.03;4.03;;;;;;;;;;4956763;28;20192;-74
2022/09/21 03:16:02;;;;;;;5.40;3.50;;;;;;;;;;4958309;28;20184;-73
2022/09/21 03:18:27;;;;;;;6.20;4.43;;;;;;;;;;4959264;28;20309;-73
2022/09/21 03:20:52;;;;;;;7.57;4.07;;;;;;;;;;4956186;28;20181;-74
2022/09/21 03:23:18;;;;;;;8.90;5.47;;;;;;;;;;4952564;28;20181;-74
2022/09/21 03:25:44;;;;;;;6.00;3.83;;;;;;;;;;4958909;28;20228;-74
2022/09/21 03:28:09;;;;;;;4.43;3.13;;;;;;;;;;4968147;28;20228;-74
2022/09/21 03:30:34;;;;;;;6.13;4.67;;;;;;;;;;4954877;28;20686;-74
2022/09/21 03:33:00;;;;;;;7.17;3.67;;;;;;;;;;4960981;28;20272;-74
2022/09/21 03:35:28;;;;;;;7.43;4.17;;;;;;;;;;4953820;28;20204;-74
2022/09/21 03:37:54;;;;;;;6.17;3.80;;;;;;;;;;4953679;28;20192;-74
2022/09/21 03:40:19;;;;;;;5.93;3.60;;;;;;;;;;4957817;28;20616;-74
2022/09/21 03:42:45;;;;;;;5.93;3.23;;;;;;;;;;4952629;28;20585;-74
2022/09/21 03:45:10;;;;;;;4.67;3.30;;;;;;;;;;4953309;28;20723;-74
2022/09/21 03:47:37;;;;;;;5.30;3.57;;;;;;;;;;4952870;28;20220;-74
2022/09/21 03:50:02;;;;;;;4.87;3.53;;;;;;;;;;4953594;28;20174;-74
2022/09/21 03:52:27;;;;;;;6.77;3.53;;;;;;;;;;4956904;28;20188;-74
2022/09/21 03:54:54;;;;;;;6.77;3.47;;;;;;;;;;4954701;28;20183;-74
2022/09/21 03:57:19;;;;;;;6.00;3.20;;;;;;;;;;4958893;28;20208;-74
2022/09/21 03:59:45;;;;;;;6.67;3.30;;;;;;;;;;4944468;28;20185;-74
2022/09/21 04:02:10;;;;;;;8.60;3.10;;;;;;;;;;4950950;28;20191;-75
2022/09/21 04:04:35;;;;;;;6.13;3.20;;;;;;;;;;4952884;28;20204;-74
2022/09/21 04:07:01;;;;;;;6.67;3.00;;;;;;;;;;4959930;28;20212;-74
2022/09/21 04:09:26;;;;;;;4.67;3.33;;;;;;;;;;4959732;28;20173;-72
2022/09/21 04:11:52;;;;;;;4.03;2.80;;;;;;;;;;4956122;28;20181;-76
2022/09/21 04:14:18;;;;;;;4.47;3.10;;;;;;;;;;4952588;28;20682;-75
2022/09/21 04:16:43;;;;;;;4.37;2.70;;;;;;;;;;4957873;28;20181;-75
2022/09/21 04:19:08;;;;;;;4.10;2.80;;;;;;;;;;4980054;28;20196;-75
2022/09/21 04:21:33;;;;;;;4.03;3.17;;;;;;;;;;4956215;28;20727;-74
2022/09/21 04:24:00;;;;;;;5.17;2.73;;;;;;;;;;4953503;28;20189;-75
2022/09/21 04:26:30;;;;;;;6.07;3.13;;;;;;;;;;4953024;28;20568;-73
2022/09/21 04:28:56;;;;;;;5.37;2.87;;;;;;;;;;4954088;28;20207;-73
2022/09/21 04:31:22;;;;;;;4.53;3.03;;;;;;;;;;4951947;28;20538;-73
2022/09/21 04:33:51;;;;;;;5.07;2.80;;;;;;;;;;4958794;28;20614;-73
2022/09/21 04:36:17;;;;;;;4.37;3.07;;;;;;;;;;4953609;28;20184;-73
2022/09/21 04:38:42;;;;;;;5.67;2.73;;;;;;;;;;4952953;28;20199;-73
2022/09/21 04:41:07;;;;;;;6.40;3.37;;;;;;;;;;4952577;28;20181;-74
2022/09/21 04:43:33;;;;;;;7.30;3.37;;;;;;;;;;4966618;28;20189;-73
2022/09/21 04:46:03;;;;;;;5.97;2.87;;;;;;;;;;4958618;28;20622;-74
2022/09/21 04:48:28;;;;;;;5.17;3.00;;;;;;;;;;4960000;28;21300;-74
2022/09/21 04:50:53;;;;;;;3.53;2.87;;;;;;;;;;4949554;28;20173;-73
2022/09/21 04:53:18;;;;;;;8.27;3.40;;;;;;;;;;4951679;28;20177;-73
2022/09/21 04:55:45;;;;;;;5.57;3.47;;;;;;;;;;4955686;28;20185;-73
2022/09/21 04:58:10;;;;;;;5.47;3.20;;;;;;;;;;4952486;28;20606;-74
2022/09/21 05:00:35;;;;;;;6.77;3.70;;;;;;;;;;4952910;28;20181;-74
2022/09/21 05:03:00;;;;;;;4.33;3.20;;;;;;;;;;4953028;28;20181;-74
2022/09/21 05:05:25;;;;;;;4.60;3.20;;;;;;;;;;4952277;28;20662;-74
2022/09/21 05:07:51;;;;;;;4.27;3.17;;;;;;;;;;4953037;28;20205;-74
2022/09/21 05:10:16;;;;;;;4.63;3.37;;;;;;;;;;4956809;28;20180;-75
2022/09/21 05:12:42;;;;;;;6.70;4.53;;;;;;;;;;4939655;28;20185;-74
2022/09/21 05:15:10;;;;;;;3.13;2.40;;;;;;;;;;4946088;28;20173;-74
2022/09/21 05:17:35;;;;;;;3.90;2.60;;;;;;;;;;4957407;28;20213;-74
2022/09/21 05:20:00;;;;;;;4.03;2.70;;;;;;;;;;4953071;28;20236;-74
2022/09/21 05:22:26;;;;;;;3.63;2.63;;;;;;;;;;4951576;28;20586;-73
2022/09/21 05:24:51;;;;;;;5.90;2.80;;;;;;;;;;4952935;28;20192;-73
2022/09/21 05:27:16;;;;;;;3.40;2.70;;;;;;;;;;4951966;28;20213;-73
2022/09/21 05:29:42;;;;;;;3.50;2.60;;;;;;;;;;4956891;28;20200;-74
2022/09/21 05:32:15;;;;;;;4.63;2.60;;;;;;;;;;4956993;28;20280;-74
2022/09/21 05:34:48;;;;;;;4.50;2.87;;;;;;;;;;4952193;28;20260;-75
2022/09/21 05:37:17;;;;;;;2.70;2.30;;;;;;;;;;4960717;28;20206;-75
2022/09/21 05:39:42;;;;;;;5.07;3.00;;;;;;;;;;4953493;28;20216;-74
2022/09/21 05:42:09;;;;;;;4.90;3.10;;;;;;;;;;4949358;28;20589;-75
2022/09/21 05:44:34;;;;;;;4.67;2.37;;;;;;;;;;4954860;28;20212;-75
2022/09/21 05:47:22;;;;;;;4.20;2.67;;;;;;;;;;4952146;28;20244;-75
2022/09/21 05:49:48;;;;;;;3.83;2.57;;;;;;;;;;4965690;28;20188;-75
2022/09/21 05:52:16;;;;;;;4.07;2.57;;;;;;;;;;4953943;28;20189;-74
2022/09/21 05:54:51;;;;;;;4.93;2.70;;;;;;;;;;4960954;28;20169;-75
2022/09/21 05:57:25;;;;;;;5.03;3.23;;;;;;;;;;4952080;28;20205;-74
2022/09/21 05:59:59;;;;;;;4.10;3.13;;;;;;;;;;4951262;28;20263;-74
2022/09/21 06:02:42;;;;;;;6.17;3.20;;;;;;;;;;4939961;28;20181;-74
2022/09/21 06:05:11;;;;;;;5.20;3.63;;;;;;;;;;4947822;28;20188;-74
2022/09/21 06:07:36;;;;;;;6.10;3.60;;;;;;;;;;4952825;28;20225;-74
2022/09/21 06:10:02;;;;;;;9.73;3.60;;;;;;;;;;4951254;28;20177;-74
2022/09/21 06:12:27;;;;;;;5.77;3.90;;;;;;;;;;4947993;28;20180;-75
2022/09/21 06:14:55;;;;;;;7.17;3.90;;;;;;;;;;4952041;28;20180;-74
2022/09/21 06:17:20;;;;;;;5.37;3.97;;;;;;;;;;4954936;28;20219;-75
2022/09/21 06:19:45;;;;;;;5.73;4.07;;;;;;;;;;4954058;28;20197;-75
2022/09/21 06:22:10;;;;;;;5.57;3.70;;;;;;;;;;4956065;28;20192;-75
2022/09/21 06:24:35;;;;;;;6.80;4.27;;;;;;;;;;4954536;28;20181;-75
2022/09/21 06:27:01;;;;;;;8.10;5.13;;;;;;;;;;4955207;28;20718;-72
2022/09/21 06:29:26;;;;;;;5.07;3.80;;;;;;;;;;4954482;28;20184;-75
2022/09/21 06:31:51;;;;;;;4.90;3.90;;;;;;;;;;4969119;28;20169;-74
2022/09/21 06:34:16;;;;;;;7.73;5.10;;;;;;;;;;4960683;28;20721;-74
2022/09/21 06:36:42;;;;;;;8.17;4.83;;;;;;;;;;4962580;28;20189;-75
2022/09/21 06:39:07;;;;;;;4.70;3.80;;;;;;;;;;4954895;28;20192;-75
2022/09/21 06:41:32;;;;;;;6.47;4.27;;;;;;;;;;4969841;28;20650;-74
2022/09/21 06:43:57;;;;;;;6.60;3.80;;;;;;;;;;4960368;28;20240;-74
2022/09/21 06:46:23;;;;;;;4.53;3.80;;;;;;;;;;4957816;28;20197;-74
2022/09/21 06:48:48;;;;;;;5.83;3.73;;;;;;;;;;4960831;28;20568;-75
2022/09/21 06:51:13;;;;;;;6.03;3.77;;;;;;;;;;4957449;28;20177;-74
2022/09/21 06:53:39;;;;;;;5.40;3.60;;;;;;;;;;4955254;28;20236;-74
2022/09/21 06:56:08;;;;;;;4.90;3.13;;;;;;;;;;4954101;28;20561;-75
2022/09/21 06:58:34;;;;;;;6.38;3.42;;;;;;;;;;4954835;28;20204;-75
2022/09/21 07:01:09;;;;;;;6.25;3.60;;;;;;;;;;4949653;28;20611;-74
2022/09/21 07:03:35;;;;;;;5.85;4.30;;;;;;;;;;4966427;28;20724;-75
2022/09/21 07:06:00;;;;;;;3.55;2.88;;;;;;;;;;4941967;28;20198;-75
2022/09/21 07:08:25;;;;;;;4.85;3.10;;;;;;;;;;4953826;28;20280;-75
2022/09/21 07:10:51;;;;;;;5.35;2.45;;;;;;;;;;4955317;28;20181;-75
2022/09/21 07:13:16;;;;;;;4.32;2.80;;;;;;;;;;4959017;28;20670;-75
2022/09/21 07:15:42;;;;;;;4.80;2.65;;;;;;;;;;4965905;28;20179;-74
2022/09/21 07:18:11;;;;;;;4.25;3.13;;;;;;;;;;4953725;28;20339;-74
2022/09/21 07:20:36;;;;;;;4.05;3.00;;;;;;;;;;4955180;28;20200;-72
2022/09/21 07:23:08;;;;;;;5.40;2.33;;;;;;;;;;4960417;28;20660;-72
2022/09/21 07:25:33;;;;;;;2.65;2.15;;;;;;;;;;4961722;28;20177;-72
2022/09/21 07:27:59;;;;;;;10.35;2.95;;;;;;;;;;4960832;28;20208;-72
2022/09/21 07:30:26;;;;;;;3.53;1.90;;;;;;;;;;4964589;28;20189;-72
2022/09/21 07:32:51;;;;;;;4.00;1.92;;;;;;;;;;4955281;28;20181;-75
2022/09/21 07:35:16;;;;;;;6.13;2.20;;;;;;;;;;4954042;28;20188;-72
2022/09/21 07:37:41;;;;;;;6.40;1.73;;;;;;;;;;4955087;28;20557;-73
2022/09/21 07:40:07;;;;;;;3.88;1.45;;;;;;;;;;4960186;28;20213;-72
2022/09/21 07:42:32;;;;;;;5.55;2.58;;;;;;;;;;4961753;28;20173;-72
2022/09/21 07:44:57;;;;;;;3.38;1.75;;;;;;;;;;4953987;28;20177;-73
2022/09/21 07:47:24;;;;;;;3.35;1.50;;;;;;;;;;4952802;28;20219;-72
2022/09/21 07:49:49;;;;;;;3.40;1.42;;;;;;;;;;4957659;28;20248;-72
2022/09/21 07:52:15;;;;;;;3.03;1.50;;;;;;;;;;4962564;28;20177;-72
2022/09/21 07:54:40;;;;;;;6.63;1.55;;;;;;;;;;4956713;28;20235;-72
2022/09/21 07:59:49;;;;;;;5.22;2.00;;;;;;;;;;4955666;28;20223;-73
2022/09/21 08:02:14;;;;;;;5.25;1.95;;;;;;;;;;4951823;28;20216;-72
2022/09/21 08:04:39;;;;;;;8.07;3.42;;;;;;;;;;4943201;28;20267;-72
2022/09/21 08:07:05;;;;;;;2.88;1.63;;;;;;;;;;4964714;28;20219;-72
2022/09/21 08:09:30;;;;;;;5.30;2.47;;;;;;;;;;4962695;28;20176;-72
2022/09/21 08:11:56;;;;;;;2.13;0.90;;;;;;;;;;4963237;28;20173;-72
2022/09/21 08:14:21;;;;;;;2.90;1.17;;;;;;;;;;4960423;28;20180;-73
2022/09/21 08:16:47;;;;;;;4.15;1.10;;;;;;;;;;4954153;28;20177;-73
2022/09/21 08:19:13;;;;;;;3.85;1.20;;;;;;;;;;4962129;28;20196;-73
2022/09/21 08:21:38;;;;;;;3.22;1.20;;;;;;;;;;4959548;28;20226;-73
2022/09/21 08:24:03;;;;;;;4.10;2.35;;;;;;;;;;4957955;28;20181;-73
2022/09/21 08:26:28;;;;;;;4.32;1.10;;;;;;;;;;4958047;28;20204;-73
2022/09/21 08:28:57;;;;;;;5.75;1.00;;;;;;;;;;4960418;28;20645;-73
2022/09/21 08:31:23;;;;;;;3.20;1.10;;;;;;;;;;4954348;28;20564;-73
2022/09/21 08:33:51;;;;;;;2.13;0.98;;;;;;;;;;4961694;28;20183;-73
2022/09/21 08:36:17;;;;;;;2.92;1.00;;;;;;;;;;4959436;28;20208;-73
2022/09/21 08:38:42;;;;;;;4.60;1.33;;;;;;;;;;4941563;28;20236;-73
2022/09/21 08:41:14;;;;;;;2.92;0.90;;;;;;;;;;4955814;28;20228;-71
2022/09/21 08:43:40;;;;;;;1.80;0.90;;;;;;;;;;4957605;28;20185;-71
2022/09/21 08:46:09;;;;;;;2.35;0.80;;;;;;;;;;4960248;28;20192;-71
2022/09/21 08:48:39;;;;;;;3.78;1.17;;;;;;;;;;4962687;28;20196;-72
2022/09/21 08:51:06;;;;;;;5.22;1.00;;;;;;;;;;4962363;28;20551;-72
2022/09/21 08:53:33;;;;;;;4.18;0.98;;;;;;;;;;4962801;28;20177;-72
2022/09/21 08:55:59;;;;;;;1.90;0.90;;;;;;;;;;4962448;28;20586;-71
2022/09/21 08:58:25;;;;;;;3.22;0.95;;;;;;;;;;4953305;28;20283;-71
2022/09/21 09:01:10;;;;;;;2.65;1.10;;;;;;;;;;4953184;28;20181;-72
2022/09/21 09:03:55;;;;;;;2.60;0.90;;;;;;;;;;4948562;28;20276;-72
2022/09/21 09:06:22;;;;;;;1.92;0.77;;;;;;;;;;4935483;28;20663;-71
2022/09/21 09:08:57;;;;;;;3.13;1.00;;;;;;;;;;4953863;28;20260;-71
2022/09/21 09:11:22;;;;;;;2.63;0.80;;;;;;;;;;4960971;28;20234;-72
2022/09/21 09:14:13;;;;;;;4.73;1.70;;;;;;;;;;4960793;28;20210;-71
2022/09/21 09:16:38;;;;;;;3.45;0.88;;;;;;;;;;4951705;28;20807;-71
2022/09/21 09:19:16;;;;;;;2.70;0.70;;;;;;;;;;4992395;22;20238;-70
2022/09/21 09:21:41;;;;;;;3.03;0.90;;;;;;;;;;4994991;28;20977;-70
2022/09/21 09:24:11;;;;;;;2.70;0.90;;;;;;;;;;4982973;28;20194;-71
2022/09/21 09:26:43;;;;;;;3.85;1.13;;;;;;;;;;4992912;28;20211;-70
2022/09/21 09:29:15;;;;;;;6.68;0.88;;;;;;;;;;4991074;28;20192;-70
2022/09/21 09:31:40;;;;;;;3.55;1.33;;;;;;;;;;4990370;28;20238;-70
2022/09/21 09:34:14;;;;;;;3.70;1.23;;;;;;;;;;4987930;28;20646;-70
2022/09/21 09:36:43;;;;;;;4.38;0.60;;;;;;;;;;4981954;28;20661;-70
2022/09/21 09:39:11;;;;;;;2.85;0.90;;;;;;;;;;4975641;28;20212;-69
2022/09/21 09:41:51;;;;;;;3.72;1.38;;;;;;;;;;4958050;28;20693;-70
2022/09/21 09:44:35;;;;;;;3.40;1.20;;;;;;;;;;4983399;28;20266;-70
2022/09/21 09:47:18;;;;;;;3.22;0.98;;;;;;;;;;4983969;28;20212;-70
2022/09/21 09:49:52;;;;;;;2.45;0.70;;;;;;;;;;4967527;28;20169;-70
2022/09/21 09:52:18;;;;;;;3.20;0.90;;;;;;;;;;4981679;28;20474;-69
2022/09/21 09:54:43;;;;;;;2.63;1.08;;;;;;;;;;4986675;28;20556;-70
2022/09/21 09:57:09;;;;;;;3.20;1.00;;;;;;;;;;4968474;28;20601;-70
2022/09/21 09:59:49;;;;;;;3.10;0.80;;;;;;;;;;4983335;28;20566;-70
2022/09/21 10:02:18;;;;;;;2.03;0.70;;;;;;;;;;4979455;28;20191;-70
2022/09/21 10:04:53;;;;;;;2.50;1.00;;;;;;;;;;4985172;28;20179;-70
2022/09/21 10:07:18;;;;;;;2.22;0.70;;;;;;;;;;4987450;28;20211;-70
2022/09/21 10:09:44;;;;;;;3.63;0.88;;;;;;;;;;4984735;28;20184;-69
2022/09/21 10:12:15;;;;;;;3.85;0.90;;;;;;;;;;4981287;28;20264;-70
2022/09/21 10:14:46;;;;;;;2.90;0.80;;;;;;;;;;4964675;28;20208;-70
2022/09/21 10:17:15;;;;;;;2.75;0.82;;;;;;;;;;4978804;28;20207;-70
2022/09/21 10:19:40;;;;;;;1.83;0.60;;;;;;;;;;4993715;28;20278;-69
2022/09/21 10:22:06;;;;;;;2.22;0.63;;;;;;;;;;4990484;28;20255;-70
2022/09/21 10:24:39;;;;;;;3.22;0.63;;;;;;;;;;4992341;28;20230;-70
2022/09/21 10:27:05;;;;;;;2.88;0.60;;;;;;;;;;4982096;28;20211;-70
2022/09/21 10:29:31;;;;;;;2.55;0.80;;;;;;;;;;4975888;28;20745;-70
2022/09/21 10:31:59;;;;;;;3.65;0.80;;;;;;;;;;4968366;28;20172;-70
2022/09/21 10:34:31;;;;;;;3.25;1.27;;;;;;;;;;4991558;28;20180;-70
2022/09/21 10:36:57;;;;;;;3.00;0.70;;;;;;;;;;4980988;28;20672;-70
2022/09/21 10:39:27;;;;;;;2.97;0.70;;;;;;;;;;4980540;28;20208;-70
2022/09/21 10:41:55;;;;;;;5.97;1.30;;;;;;;;;;4991662;28;20541;-69
2022/09/21 10:44:22;;;;;;;1.52;0.68;;;;;;;;;;4979100;28;20192;-70
2022/09/21 10:46:48;;;;;;;3.88;0.70;;;;;;;;;;4984225;28;20203;-70
2022/09/21 10:49:24;;;;;;;2.08;0.60;;;;;;;;;;4982159;28;20210;-70
2022/09/21 10:51:51;;;;;;;2.05;0.50;;;;;;;;;;4978918;28;20202;-70
2022/09/21 10:54:19;;;;;;;3.75;0.82;;;;;;;;;;4977356;28;20195;-70
2022/09/21 10:57:11;;;;;;;3.42;0.60;;;;;;;;;;4963406;28;20208;-70
2022/09/21 10:59:36;;;;;;;3.85;0.70;;;;;;;;;;4978064;28;20661;-67
2022/09/21 11:02:21;;;;;;;2.70;0.63;;;;;;;;;;4979700;28;20259;-70
2022/09/21 11:04:51;;;;;;;6.00;1.08;;;;;;;;;;4976436;28;20453;-67
2022/09/21 11:07:20;;;;;;;1.75;0.50;;;;;;;;;;4984469;28;20204;-68
2022/09/21 11:09:45;;;;;;;2.40;0.50;;;;;;;;;;4973327;28;20180;-68
2022/09/21 11:12:16;;;;;;;2.73;0.50;;;;;;;;;;4975521;28;20184;-67
2022/09/21 11:14:46;;;;;;;3.63;0.60;;;;;;;;;;4977337;28;20171;-67
2022/09/21 11:17:30;;;;;;;4.55;0.77;;;;;;;;;;4978461;28;20270;-67
2022/09/21 11:20:01;;;;;;;1.63;0.57;;;;;;;;;;4986403;28;20638;-67
2022/09/21 11:22:54;;;;;;;1.58;0.82;;;;;;;;;;4992324;28;20194;-70
2022/09/21 11:25:25;;;;;;;2.35;0.73;;;;;;;;;;4981721;28;20706;-69
2022/09/21 11:27:53;;;;;;;1.65;0.60;;;;;;;;;;4966177;28;20208;-68
2022/09/21 11:30:19;;;;;;;1.85;0.50;;;;;;;;;;4966195;28;20185;-67
2022/09/21 11:32:47;;;;;;;1.15;0.60;;;;;;;;;;4968500;28;20362;-68
2022/09/21 11:35:31;;;;;;;2.38;0.43;;;;;;;;;;4973809;28;20242;-68
2022/09/21 11:38:03;;;;;;;3.90;0.75;;;;;;;;;;4977631;28;20218;-67
2022/09/21 11:40:31;;;;;;;1.40;0.45;;;;;;;;;;4974641;28;20293;-68
2022/09/21 11:43:00;;;;;;;1.58;0.73;;;;;;;;;;4976312;28;20281;-70
2022/09/21 11:45:40;;;;;;;2.15;0.70;;;;;;;;;;4984421;28;20191;-68
2022/09/21 11:48:31;;;;;;;2.67;1.40;;;;;;;;;;4975768;28;20215;-68
2022/09/21 11:51:03;;;;;;;0.98;0.30;;;;;;;;;;4956724;28;20214;-67
2022/09/21 11:53:34;;;;;;;1.48;0.50;;;;;;;;;;4973638;28;20180;-68
2022/09/21 11:55:59;;;;;;;1.27;0.45;;;;;;;;;;4967180;28;20187;-68
2022/09/21 11:58:29;;;;;;;0.53;0.33;;;;;;;;;;4981533;28;20188;-68
2022/09/21 12:01:03;;;;;;;1.67;0.50;;;;;;;;;;4977294;28;20422;-68
2022/09/21 12:03:39;;;;;;;3.42;0.50;;;;;;;;;;4967468;28;20241;-68
2022/09/21 12:06:16;;;;;;;1.50;0.43;;;;;;;;;;4980251;28;20206;-70
2022/09/21 12:09:00;;;;;;;5.05;0.70;;;;;;;;;;4970122;28;20191;-68
2022/09/21 12:11:41;;;;;;;3.78;0.50;;;;;;;;;;4973410;28;20181;-68
2022/09/21 12:14:07;;;;;;;2.72;0.50;;;;;;;;;;4972407;28;20169;-68
2022/09/21 12:16:43;;;;;;;2.17;0.50;;;;;;;;;;4971930;28;20560;-68
2022/09/21 12:19:16;;;;;;;1.75;0.40;;;;;;;;;;4977414;28;20709;-68
2022/09/21 12:21:44;;;;;;;1.42;0.45;;;;;;;;;;4985363;28;20192;-68
2022/09/21 12:24:30;;;;;;;0.77;0.30;;;;;;;;;;4971314;28;20275;-67
2022/09/21 12:26:59;;;;;;;1.55;0.20;;;;;;;;;;4974005;28;20210;-68
2022/09/21 12:29:27;;;;;;;1.70;0.30;;;;;;;;;;4981677;28;20194;-68
2022/09/21 12:31:52;;;;;;;2.80;0.55;;;;;;;;;;4973709;28;20613;-68
2022/09/21 12:34:20;;;;;;;1.07;0.40;;;;;;;;;;4976414;28;20272;-68
2022/09/21 12:36:50;;;;;;;2.95;0.47;;;;;;;;;;4975772;28;20875;-68
2022/09/21 12:39:28;;;;;;;1.25;0.30;;;;;;;;;;4969489;28;20220;-68
2022/09/21 12:42:00;;;;;;;1.05;0.40;;;;;;;;;;4955455;28;20184;-68
2022/09/21 12:44:50;;;;;;;2.20;0.40;;;;;;;;;;4982031;28;20172;-68
2022/09/21 12:47:18;;;;;;;1.50;0.43;;;;;;;;;;4977075;28;20283;-68
2022/09/21 12:49:47;;;;;;;1.45;0.70;;;;;;;;;;4963395;28;20246;-68
2022/09/21 12:52:23;;;;;;;1.08;0.55;;;;;;;;;;4969484;28;20653;-68
2022/09/21 12:54:53;;;;;;;2.05;0.30;;;;;;;;;;4969937;28;20670;-68
2022/09/21 12:57:21;;;;;;;0.82;0.40;;;;;;;;;;4982469;28;20180;-68
2022/09/21 13:00:09;;;;;;;1.75;0.63;;;;;;;;;;4966305;28;20380;-68
2022/09/21 13:02:40;;;;;;;2.17;0.73;;;;;;;;;;4972809;28;20386;-68
2022/09/21 13:05:15;;;;;;;1.13;0.43;;;;;;;;;;4970947;28;20645;-68
2022/09/21 13:08:06;;;;;;;2.53;0.43;;;;;;;;;;4977527;28;20211;-68
2022/09/21 13:10:54;;;;;;;3.92;0.50;;;;;;;;;;4956110;28;20183;-68
2022/09/21 13:13:23;;;;;;;0.52;0.30;;;;;;;;;;4984127;28;20215;-68
2022/09/21 13:15:48;;;;;;;2.08;0.50;;;;;;;;;;4973715;28;20181;-68
2022/09/21 13:18:24;;;;;;;1.70;0.40;;;;;;;;;;4972185;28;20229;-67
2022/09/21 13:20:51;;;;;;;1.23;0.32;;;;;;;;;;4976760;28;20167;-68
2022/09/21 13:23:21;;;;;;;2.72;0.40;;;;;;;;;;4991442;28;20263;-68
2022/09/21 13:25:47;;;;;;;2.78;0.40;;;;;;;;;;4977735;28;20196;-68
2022/09/21 13:28:13;;;;;;;1.15;0.40;;;;;;;;;;4963773;28;20678;-69
2022/09/21 13:30:41;;;;;;;3.05;0.35;;;;;;;;;;4976629;28;20188;-67
2022/09/21 13:33:18;;;;;;;0.68;0.30;;;;;;;;;;4973853;28;20291;-69
2022/09/21 13:35:49;;;;;;;1.20;0.55;;;;;;;;;;4982811;28;20222;-68
2022/09/21 13:38:22;;;;;;;1.50;0.60;;;;;;;;;;4985773;28;20196;-68
2022/09/21 13:40:48;;;;;;;4.53;0.50;;;;;;;;;;4980656;28;20279;-68
2022/09/21 13:43:18;;;;;;;1.08;0.30;;;;;;;;;;4985575;28;20179;-68
2022/09/21 13:45:50;;;;;;;1.42;0.40;;;;;;;;;;4966593;28;20243;-67
2022/09/21 13:48:23;;;;;;;1.15;0.50;;;;;;;;;;4974767;28;20504;-68
2022/09/21 13:50:49;;;;;;;2.50;0.40;;;;;;;;;;4969895;28;20179;-68
2022/09/21 13:53:25;;;;;;;2.45;0.70;;;;;;;;;;4975360;28;20223;-68
2022/09/21 13:55:53;;;;;;;1.42;0.43;;;;;;;;;;4975783;28;20262;-68
2022/09/21 13:58:20;;;;;;;2.63;0.43;;;;;;;;;;4982197;28;20262;-68
2022/09/21 14:00:48;;;;;;;2.03;0.40;;;;;;;;;;4968345;28;20183;-68
2022/09/21 14:03:21;;;;;;;1.52;0.52;;;;;;;;;;4970397;28;20206;-68
2022/09/21 14:05:51;;;;;;;2.58;0.28;;;;;;;;;;4972761;28;20264;-68
2022/09/21 14:08:19;;;;;;;1.35;0.40;;;;;;;;;;4969536;28;20193;-68
2022/09/21 14:11:02;;;;;;;0.80;0.30;;;;;;;;;;4970079;28;20251;-68
2022/09/21 14:13:30;;;;;;;1.35;0.15;;;;;;;;;;4968469;28;20535;-68
2022/09/21 14:16:15;;;;;;;0.98;0.30;;;;;;;;;;4967859;28;20173;-68
2022/09/21 14:18:40;;;;;;;2.00;0.40;;;;;;;;;;4972879;28;20303;-68
2022/09/21 14:21:08;;;;;;;1.52;0.40;;;;;;;;;;4976594;28;20625;-68
2022/09/21 14:23:34;;;;;;;0.75;0.20;;;;;;;;;;4976099;28;20187;-68
2022/09/21 14:26:00;;;;;;;1.58;0.43;;;;;;;;;;4981327;28;20175;-68
2022/09/21 14:28:35;;;;;;;2.83;0.52;;;;;;;;;;4965741;28;20334;-68
2022/09/21 14:31:02;;;;;;;2.08;0.40;;;;;;;;;;4965730;28;20206;-68
2022/09/21 14:33:43;;;;;;;3.08;0.55;;;;;;;;;;4965683;28;20181;-68
2022/09/21 14:36:11;;;;;;;1.05;0.40;;;;;;;;;;4964033;28;20631;-69
2022/09/21 14:38:44;;;;;;;1.35;0.45;;;;;;;;;;4965930;28;20200;-68
2022/09/21 14:41:14;;;;;;;2.50;0.75;;;;;;;;;;4975031;28;20234;-68
2022/09/21 14:43:40;;;;;;;2.05;0.40;;;;;;;;;;4983637;28;20184;-68
2022/09/21 14:46:24;;;;;;;1.65;0.50;;;;;;;;;;4985903;28;20239;-68
2022/09/21 14:48:55;;;;;;;2.10;0.50;;;;;;;;;;4968644;28;20700;-68
2022/09/21 14:51:23;;;;;;;1.95;0.55;;;;;;;;;;4971384;28;20266;-68
2022/09/21 14:54:05;;;;;;;2.33;0.50;;;;;;;;;;4985096;28;20234;-68
2022/09/21 14:56:57;;;;;;;1.73;0.52;;;;;;;;;;4983621;28;20188;-68
2022/09/21 14:59:30;;;;;;;3.35;1.30;;;;;;;;;;4966444;28;20235;-68